sensor_id;sensor_type;location;lat;lon;timestamp;temperature;humidity
14079;DHT22;7115;50.150;8.568;2023-01-23T00:02:16;4.20;99.90
14079;DHT22;7115;50.150;8.568;2023-01-23T00:04:43;4.20;99.90
14079;DHT22;7115;50.150;8.568;2023-01-23T00:07:10;4.10;99.90
14079;DHT22;7115;50.150;8.568;2023-01-23T00:09:37;4.10;99.90
14079;DHT22;7115;50.150;8.568;2023-01-23T00:12:04;4.10;99.90
14079;DHT22;7115;50.150;8.568;2023-01-23T00:14:31;4.20;99.90
14079;DHT22;7115;50.150;8.568;2023-01-23T00:17:00;4.20;99.90
14079;DHT22;7115;50.150;8.568;2023-01-23T00:19:27;4.20;99.90
14079;DHT22;7115;50.150;8.568;2023-01-23T00:21:53;4.20;99.90
14079;DHT22;7115;50.150;8.568;2023-01-23T00:24:20;4.30;99.90
14079;DHT22;7115;50.150;8.568;2023-01-23T00:26:47;4.20;99.90
14079;DHT22;7115;50.150;8.568;2023-01-23T00:29:14;4.20;99.90
14079;DHT22;7115;50.150;8.568;2023-01-23T00:31:41;4.20;99.90
14079;DHT22;7115;50.150;8.568;2023-01-23T00:34:12;4.20;99.90
14079;DHT22;7115;50.150;8.568;2023-01-23T00:36:41;4.30;99.90
14079;DHT22;7115;50.150;8.568;2023-01-23T00:39:13;4.30;99.90
14079;DHT22;7115;50.150;8.568;2023-01-23T00:41:41;4.30;99.90
14079;DHT22;7115;50.150;8.568;2023-01-23T00:44:08;4.30;99.90
14079;DHT22;7115;50.150;8.568;2023-01-23T00:46:35;4.40;99.90
14079;DHT22;7115;50.150;8.568;2023-01-23T00:49:02;4.40;99.90
14079;DHT22;7115;50.150;8.568;2023-01-23T00:51:30;4.40;99.90
14079;DHT22;7115;50.150;8.568;2023-01-23T00:53:57;4.40;99.90
14079;DHT22;7115;50.150;8.568;2023-01-23T00:56:24;4.40;99.90
14079;DHT22;7115;50.150;8.568;2023-01-23T00:58:51;4.40;99.90
14079;DHT22;7115;50.150;8.568;2023-01-23T01:01:18;4.40;99.90
14079;DHT22;7115;50.150;8.568;2023-01-23T01:03:45;4.40;99.90
14079;DHT22;7115;50.150;8.568;2023-01-23T01:06:14;4.40;99.90
14079;DHT22;7115;50.150;8.568;2023-01-23T01:08:42;4.40;99.90
14079;DHT22;7115;50.150;8.568;2023-01-23T01:11:09;4.40;99.90
14079;DHT22;7115;50.150;8.568;2023-01-23T01:13:36;4.40;99.90
14079;DHT22;7115;50.150;8.568;2023-01-23T01:16:04;4.30;99.90
14079;DHT22;7115;50.150;8.568;2023-01-23T01:18:32;4.30;99.90
14079;DHT22;7115;50.150;8.568;2023-01-23T01:20:59;4.30;99.90
14079;DHT22;7115;50.150;8.568;2023-01-23T01:23:26;4.30;99.90
14079;DHT22;7115;50.150;8.568;2023-01-23T01:25:59;4.30;99.90
14079;DHT22;7115;50.150;8.568;2023-01-23T01:28:26;4.30;99.90
14079;DHT22;7115;50.150;8.568;2023-01-23T01:30:56;4.20;99.90
14079;DHT22;7115;50.150;8.568;2023-01-23T01:33:23;4.20;99.90
14079;DHT22;7115;50.150;8.568;2023-01-23T01:35:51;4.20;99.90
14079;DHT22;7115;50.150;8.568;2023-01-23T01:38:18;4.10;99.90
14079;DHT22;7115;50.150;8.568;2023-01-23T01:40:45;4.10;99.90
14079;DHT22;7115;50.150;8.568;2023-01-23T01:43:18;4.10;99.90
14079;DHT22;7115;50.150;8.568;2023-01-23T01:46:15;4.00;99.90
14079;DHT22;7115;50.150;8.568;2023-01-23T01:48:47;4.00;99.90
14079;DHT22;7115;50.150;8.568;2023-01-23T01:51:18;3.90;99.90
14079;DHT22;7115;50.150;8.568;2023-01-23T01:53:49;3.90;99.90
14079;DHT22;7115;50.150;8.568;2023-01-23T01:56:19;3.90;99.90
14079;DHT22;7115;50.150;8.568;2023-01-23T01:58:51;3.90;99.90
14079;DHT22;7115;50.150;8.568;2023-01-23T02:01:19;3.90;99.90
14079;DHT22;7115;50.150;8.568;2023-01-23T02:03:46;3.90;99.90
14079;DHT22;7115;50.150;8.568;2023-01-23T02:06:15;4.00;99.90
14079;DHT22;7115;50.150;8.568;2023-01-23T02:08:48;4.00;99.90
14079;DHT22;7115;50.150;8.568;2023-01-23T02:11:17;4.00;99.90
14079;DHT22;7115;50.150;8.568;2023-01-23T02:13:44;4.00;99.90
14079;DHT22;7115;50.150;8.568;2023-01-23T02:16:20;4.00;99.90
14079;DHT22;7115;50.150;8.568;2023-01-23T02:18:49;4.00;99.90
14079;DHT22;7115;50.150;8.568;2023-01-23T02:21:20;3.90;99.90
14079;DHT22;7115;50.150;8.568;2023-01-23T02:24:00;3.90;99.90
14079;DHT22;7115;50.150;8.568;2023-01-23T02:26:33;3.90;99.90
14079;DHT22;7115;50.150;8.568;2023-01-23T02:29:03;3.80;99.90
14079;DHT22;7115;50.150;8.568;2023-01-23T02:31:31;3.80;99.90
14079;DHT22;7115;50.150;8.568;2023-01-23T02:33:59;3.80;99.90
14079;DHT22;7115;50.150;8.568;2023-01-23T02:36:28;3.80;99.90
14079;DHT22;7115;50.150;8.568;2023-01-23T02:39:00;3.80;99.90
14079;DHT22;7115;50.150;8.568;2023-01-23T02:41:31;3.80;99.90
14079;DHT22;7115;50.150;8.568;2023-01-23T02:44:01;3.70;99.90
14079;DHT22;7115;50.150;8.568;2023-01-23T02:46:28;3.70;99.90
14079;DHT22;7115;50.150;8.568;2023-01-23T02:48:55;3.70;99.90
14079;DHT22;7115;50.150;8.568;2023-01-23T02:51:22;3.70;99.90
14079;DHT22;7115;50.150;8.568;2023-01-23T02:53:50;3.70;99.90
14079;DHT22;7115;50.150;8.568;2023-01-23T02:56:17;3.70;99.90
14079;DHT22;7115;50.150;8.568;2023-01-23T02:58:45;3.70;99.90
14079;DHT22;7115;50.150;8.568;2023-01-23T03:01:31;3.70;99.90
14079;DHT22;7115;50.150;8.568;2023-01-23T03:04:02;3.70;99.90
14079;DHT22;7115;50.150;8.568;2023-01-23T03:06:31;3.70;99.90
14079;DHT22;7115;50.150;8.568;2023-01-23T03:09:04;3.80;99.90
14079;DHT22;7115;50.150;8.568;2023-01-23T03:11:31;3.70;99.90
14079;DHT22;7115;50.150;8.568;2023-01-23T03:13:59;3.80;99.90
14079;DHT22;7115;50.150;8.568;2023-01-23T03:16:27;3.80;99.90
14079;DHT22;7115;50.150;8.568;2023-01-23T03:18:54;3.80;99.90
14079;DHT22;7115;50.150;8.568;2023-01-23T03:21:23;3.80;99.90
14079;DHT22;7115;50.150;8.568;2023-01-23T03:23:50;3.80;99.90
14079;DHT22;7115;50.150;8.568;2023-01-23T03:26:17;3.80;99.90
14079;DHT22;7115;50.150;8.568;2023-01-23T03:28:44;3.70;99.90
14079;DHT22;7115;50.150;8.568;2023-01-23T03:31:30;3.90;99.90
14079;DHT22;7115;50.150;8.568;2023-01-23T03:33:57;3.90;99.90
14079;DHT22;7115;50.150;8.568;2023-01-23T03:36:24;3.90;99.90
14079;DHT22;7115;50.150;8.568;2023-01-23T03:38:51;3.90;99.90
14079;DHT22;7115;50.150;8.568;2023-01-23T03:41:36;3.90;99.90
14079;DHT22;7115;50.150;8.568;2023-01-23T03:44:07;3.90;99.90
14079;DHT22;7115;50.150;8.568;2023-01-23T03:46:36;3.90;99.90
14079;DHT22;7115;50.150;8.568;2023-01-23T03:49:03;3.90;99.90
14079;DHT22;7115;50.150;8.568;2023-01-23T03:51:30;3.90;99.90
14079;DHT22;7115;50.150;8.568;2023-01-23T03:53:57;3.90;99.90
14079;DHT22;7115;50.150;8.568;2023-01-23T03:56:24;3.90;99.90
14079;DHT22;7115;50.150;8.568;2023-01-23T03:58:50;3.90;99.90
14079;DHT22;7115;50.150;8.568;2023-01-23T04:01:18;3.90;99.90
14079;DHT22;7115;50.150;8.568;2023-01-23T04:03:46;4.00;99.90
14079;DHT22;7115;50.150;8.568;2023-01-23T04:06:13;4.00;99.90
14079;DHT22;7115;50.150;8.568;2023-01-23T04:08:40;4.00;99.90
14079;DHT22;7115;50.150;8.568;2023-01-23T04:11:09;4.00;99.90
14079;DHT22;7115;50.150;8.568;2023-01-23T04:13:36;4.00;99.90
14079;DHT22;7115;50.150;8.568;2023-01-23T04:16:04;4.00;99.90
14079;DHT22;7115;50.150;8.568;2023-01-23T04:18:32;3.90;99.90
14079;DHT22;7115;50.150;8.568;2023-01-23T04:21:00;3.90;99.90
14079;DHT22;7115;50.150;8.568;2023-01-23T04:23:27;3.90;99.90
14079;DHT22;7115;50.150;8.568;2023-01-23T04:25:54;3.90;99.90
14079;DHT22;7115;50.150;8.568;2023-01-23T04:28:22;3.90;99.90
14079;DHT22;7115;50.150;8.568;2023-01-23T04:30:49;3.90;99.90
14079;DHT22;7115;50.150;8.568;2023-01-23T04:33:17;3.90;99.90
14079;DHT22;7115;50.150;8.568;2023-01-23T04:35:49;3.90;99.90
14079;DHT22;7115;50.150;8.568;2023-01-23T04:38:18;3.90;99.90
14079;DHT22;7115;50.150;8.568;2023-01-23T04:40:45;3.90;99.90
14079;DHT22;7115;50.150;8.568;2023-01-23T04:43:12;3.90;99.90
14079;DHT22;7115;50.150;8.568;2023-01-23T04:45:39;3.90;99.90
14079;DHT22;7115;50.150;8.568;2023-01-23T04:48:06;3.90;99.90
14079;DHT22;7115;50.150;8.568;2023-01-23T04:50:33;4.00;99.90
14079;DHT22;7115;50.150;8.568;2023-01-23T04:53:00;4.00;99.90
14079;DHT22;7115;50.150;8.568;2023-01-23T04:55:28;4.00;99.90
14079;DHT22;7115;50.150;8.568;2023-01-23T04:57:55;4.00;99.90
14079;DHT22;7115;50.150;8.568;2023-01-23T05:00:22;4.00;99.90
14079;DHT22;7115;50.150;8.568;2023-01-23T05:02:49;4.00;99.90
14079;DHT22;7115;50.150;8.568;2023-01-23T05:05:17;4.10;99.90
14079;DHT22;7115;50.150;8.568;2023-01-23T05:07:46;4.10;99.90
14079;DHT22;7115;50.150;8.568;2023-01-23T05:10:14;4.10;99.90
14079;DHT22;7115;50.150;8.568;2023-01-23T05:12:43;4.10;99.90
14079;DHT22;7115;50.150;8.568;2023-01-23T05:15:10;4.10;99.90
14079;DHT22;7115;50.150;8.568;2023-01-23T05:17:37;4.10;99.90
14079;DHT22;7115;50.150;8.568;2023-01-23T05:20:05;4.10;99.90
14079;DHT22;7115;50.150;8.568;2023-01-23T05:22:32;4.10;99.90
14079;DHT22;7115;50.150;8.568;2023-01-23T05:24:59;4.10;99.90
14079;DHT22;7115;50.150;8.568;2023-01-23T05:27:26;4.00;99.90
14079;DHT22;7115;50.150;8.568;2023-01-23T05:29:54;4.10;99.90
14079;DHT22;7115;50.150;8.568;2023-01-23T05:32:21;4.10;99.90
14079;DHT22;7115;50.150;8.568;2023-01-23T05:34:48;4.10;99.90
14079;DHT22;7115;50.150;8.568;2023-01-23T05:37:15;4.10;99.90
14079;DHT22;7115;50.150;8.568;2023-01-23T05:39:42;4.20;99.90
14079;DHT22;7115;50.150;8.568;2023-01-23T05:42:09;4.20;99.90
14079;DHT22;7115;50.150;8.568;2023-01-23T05:44:35;4.20;99.90
14079;DHT22;7115;50.150;8.568;2023-01-23T05:47:04;4.20;99.90
14079;DHT22;7115;50.150;8.568;2023-01-23T05:49:31;4.20;99.90
14079;DHT22;7115;50.150;8.568;2023-01-23T05:51:57;4.20;99.90
14079;DHT22;7115;50.150;8.568;2023-01-23T05:54:24;4.20;99.90
14079;DHT22;7115;50.150;8.568;2023-01-23T05:56:51;4.20;99.90
14079;DHT22;7115;50.150;8.568;2023-01-23T05:59:18;4.20;99.90
14079;DHT22;7115;50.150;8.568;2023-01-23T06:01:45;4.20;99.90
14079;DHT22;7115;50.150;8.568;2023-01-23T06:04:13;4.20;99.90
14079;DHT22;7115;50.150;8.568;2023-01-23T06:06:42;4.20;99.90
14079;DHT22;7115;50.150;8.568;2023-01-23T06:09:10;4.20;99.90
14079;DHT22;7115;50.150;8.568;2023-01-23T06:11:37;4.20;99.90
14079;DHT22;7115;50.150;8.568;2023-01-23T06:14:04;4.20;99.90
14079;DHT22;7115;50.150;8.568;2023-01-23T06:16:31;4.20;99.90
14079;DHT22;7115;50.150;8.568;2023-01-23T06:18:58;4.20;99.90
14079;DHT22;7115;50.150;8.568;2023-01-23T06:21:27;4.20;99.90
14079;DHT22;7115;50.150;8.568;2023-01-23T06:23:53;4.20;99.90
14079;DHT22;7115;50.150;8.568;2023-01-23T06:26:20;4.20;99.90
14079;DHT22;7115;50.150;8.568;2023-01-23T06:28:47;4.20;99.90
14079;DHT22;7115;50.150;8.568;2023-01-23T06:31:14;4.20;99.90
14079;DHT22;7115;50.150;8.568;2023-01-23T06:33:41;4.30;99.90
14079;DHT22;7115;50.150;8.568;2023-01-23T06:36:09;4.30;99.90
14079;DHT22;7115;50.150;8.568;2023-01-23T06:38:37;4.30;99.90
14079;DHT22;7115;50.150;8.568;2023-01-23T06:41:04;4.30;99.90
14079;DHT22;7115;50.150;8.568;2023-01-23T06:43:31;4.30;99.90
14079;DHT22;7115;50.150;8.568;2023-01-23T06:45:58;4.30;99.90
14079;DHT22;7115;50.150;8.568;2023-01-23T06:48:25;4.30;99.90
14079;DHT22;7115;50.150;8.568;2023-01-23T06:50:52;4.30;99.90
14079;DHT22;7115;50.150;8.568;2023-01-23T06:53:19;4.30;99.90
14079;DHT22;7115;50.150;8.568;2023-01-23T06:55:47;4.30;99.90
14079;DHT22;7115;50.150;8.568;2023-01-23T06:58:14;4.30;99.90
14079;DHT22;7115;50.150;8.568;2023-01-23T07:00:41;4.30;99.90
14079;DHT22;7115;50.150;8.568;2023-01-23T07:03:10;4.30;99.90
14079;DHT22;7115;50.150;8.568;2023-01-23T07:05:38;4.30;99.90
14079;DHT22;7115;50.150;8.568;2023-01-23T07:08:06;4.30;99.90
14079;DHT22;7115;50.150;8.568;2023-01-23T07:10:34;4.30;99.90
14079;DHT22;7115;50.150;8.568;2023-01-23T07:13:05;4.30;99.90
14079;DHT22;7115;50.150;8.568;2023-01-23T07:15:32;4.40;99.90
14079;DHT22;7115;50.150;8.568;2023-01-23T07:18:00;4.40;99.90
14079;DHT22;7115;50.150;8.568;2023-01-23T07:20:27;4.30;99.90
14079;DHT22;7115;50.150;8.568;2023-01-23T07:22:55;4.30;99.90
14079;DHT22;7115;50.150;8.568;2023-01-23T07:25:23;4.20;99.90
14079;DHT22;7115;50.150;8.568;2023-01-23T07:27:50;4.20;99.90
14079;DHT22;7115;50.150;8.568;2023-01-23T07:30:19;4.10;99.90
14079;DHT22;7115;50.150;8.568;2023-01-23T07:32:46;4.10;99.90
14079;DHT22;7115;50.150;8.568;2023-01-23T07:35:13;4.10;99.90
14079;DHT22;7115;50.150;8.568;2023-01-23T07:37:40;4.20;99.90
14079;DHT22;7115;50.150;8.568;2023-01-23T07:40:08;4.20;99.90
14079;DHT22;7115;50.150;8.568;2023-01-23T07:42:35;4.20;99.90
14079;DHT22;7115;50.150;8.568;2023-01-23T07:45:03;4.30;99.90
14079;DHT22;7115;50.150;8.568;2023-01-23T07:47:31;4.40;99.90
14079;DHT22;7115;50.150;8.568;2023-01-23T07:49:58;4.40;99.90
14079;DHT22;7115;50.150;8.568;2023-01-23T07:52:25;4.50;99.90
14079;DHT22;7115;50.150;8.568;2023-01-23T07:54:52;4.50;99.90
14079;DHT22;7115;50.150;8.568;2023-01-23T07:57:19;4.40;99.90
14079;DHT22;7115;50.150;8.568;2023-01-23T07:59:46;4.40;99.90
14079;DHT22;7115;50.150;8.568;2023-01-23T08:02:13;4.50;99.90
14079;DHT22;7115;50.150;8.568;2023-01-23T08:04:41;4.50;99.90
14079;DHT22;7115;50.150;8.568;2023-01-23T08:07:08;4.50;99.90
14079;DHT22;7115;50.150;8.568;2023-01-23T08:09:35;4.50;99.90
14079;DHT22;7115;50.150;8.568;2023-01-23T08:12:02;4.50;99.90
14079;DHT22;7115;50.150;8.568;2023-01-23T08:14:29;4.50;99.90
14079;DHT22;7115;50.150;8.568;2023-01-23T08:16:56;4.50;99.90
14079;DHT22;7115;50.150;8.568;2023-01-23T08:19:23;4.50;99.90
14079;DHT22;7115;50.150;8.568;2023-01-23T08:21:55;4.60;99.90
14079;DHT22;7115;50.150;8.568;2023-01-23T08:24:22;4.60;99.90
14079;DHT22;7115;50.150;8.568;2023-01-23T08:26:49;4.60;99.90
14079;DHT22;7115;50.150;8.568;2023-01-23T08:29:15;4.60;99.90
14079;DHT22;7115;50.150;8.568;2023-01-23T08:31:43;4.60;99.90
14079;DHT22;7115;50.150;8.568;2023-01-23T08:34:10;4.60;99.90
14079;DHT22;7115;50.150;8.568;2023-01-23T08:36:37;4.60;99.90
14079;DHT22;7115;50.150;8.568;2023-01-23T08:39:06;4.70;99.90
14079;DHT22;7115;50.150;8.568;2023-01-23T08:41:33;4.70;99.90
14079;DHT22;7115;50.150;8.568;2023-01-23T08:44:00;4.70;99.90
14079;DHT22;7115;50.150;8.568;2023-01-23T08:46:27;4.80;99.90
14079;DHT22;7115;50.150;8.568;2023-01-23T08:48:55;4.80;99.90
14079;DHT22;7115;50.150;8.568;2023-01-23T08:51:22;4.80;99.90
14079;DHT22;7115;50.150;8.568;2023-01-23T08:53:50;4.80;99.90
14079;DHT22;7115;50.150;8.568;2023-01-23T08:56:21;4.80;99.90
14079;DHT22;7115;50.150;8.568;2023-01-23T08:58:49;4.80;99.90
14079;DHT22;7115;50.150;8.568;2023-01-23T09:01:17;4.80;99.90
14079;DHT22;7115;50.150;8.568;2023-01-23T09:03:46;4.80;99.90
14079;DHT22;7115;50.150;8.568;2023-01-23T09:06:14;4.80;99.90
14079;DHT22;7115;50.150;8.568;2023-01-23T09:08:42;4.80;99.90
14079;DHT22;7115;50.150;8.568;2023-01-23T09:11:10;4.80;99.90
14079;DHT22;7115;50.150;8.568;2023-01-23T09:13:38;4.80;99.90
14079;DHT22;7115;50.150;8.568;2023-01-23T09:16:07;4.80;99.90
14079;DHT22;7115;50.150;8.568;2023-01-23T09:18:34;4.80;99.90
14079;DHT22;7115;50.150;8.568;2023-01-23T09:21:05;4.80;99.90
14079;DHT22;7115;50.150;8.568;2023-01-23T09:23:34;4.80;99.90
14079;DHT22;7115;50.150;8.568;2023-01-23T09:26:02;4.80;99.90
14079;DHT22;7115;50.150;8.568;2023-01-23T09:28:30;4.80;99.90
14079;DHT22;7115;50.150;8.568;2023-01-23T09:31:01;4.80;99.90
14079;DHT22;7115;50.150;8.568;2023-01-23T09:33:28;4.80;99.90
14079;DHT22;7115;50.150;8.568;2023-01-23T09:35:55;4.80;99.90
14079;DHT22;7115;50.150;8.568;2023-01-23T09:38:23;4.80;99.90
14079;DHT22;7115;50.150;8.568;2023-01-23T09:40:52;4.80;99.90
14079;DHT22;7115;50.150;8.568;2023-01-23T09:43:24;4.80;99.90
14079;DHT22;7115;50.150;8.568;2023-01-23T09:46:01;4.90;99.90
14079;DHT22;7115;50.150;8.568;2023-01-23T09:48:36;4.90;99.90
14079;DHT22;7115;50.150;8.568;2023-01-23T09:51:13;4.90;99.90
14079;DHT22;7115;50.150;8.568;2023-01-23T09:53:42;5.00;99.90
14079;DHT22;7115;50.150;8.568;2023-01-23T09:56:21;5.00;99.90
14079;DHT22;7115;50.150;8.568;2023-01-23T09:58:59;5.10;99.90
14079;DHT22;7115;50.150;8.568;2023-01-23T10:01:30;5.10;99.90
14079;DHT22;7115;50.150;8.568;2023-01-23T10:03:58;5.20;99.90
14079;DHT22;7115;50.150;8.568;2023-01-23T10:06:28;5.20;99.90
14079;DHT22;7115;50.150;8.568;2023-01-23T10:09:19;5.30;99.90
14079;DHT22;7115;50.150;8.568;2023-01-23T10:11:57;5.30;99.90
14079;DHT22;7115;50.150;8.568;2023-01-23T10:14:50;5.30;99.90
14079;DHT22;7115;50.150;8.568;2023-01-23T10:17:31;5.30;99.90
14079;DHT22;7115;50.150;8.568;2023-01-23T10:20:26;5.40;99.90
14079;DHT22;7115;50.150;8.568;2023-01-23T10:23:05;5.60;99.90
14079;DHT22;7115;50.150;8.568;2023-01-23T10:25:36;5.70;99.90
14079;DHT22;7115;50.150;8.568;2023-01-23T10:28:16;5.90;99.90
14079;DHT22;7115;50.150;8.568;2023-01-23T10:30:47;6.00;99.90
14079;DHT22;7115;50.150;8.568;2023-01-23T10:33:17;6.10;99.90
14079;DHT22;7115;50.150;8.568;2023-01-23T10:35:47;6.10;99.90
14079;DHT22;7115;50.150;8.568;2023-01-23T10:38:24;6.10;99.90
14079;DHT22;7115;50.150;8.568;2023-01-23T10:40:52;6.00;99.90
14079;DHT22;7115;50.150;8.568;2023-01-23T10:43:39;6.00;99.90
14079;DHT22;7115;50.150;8.568;2023-01-23T10:46:11;5.90;99.90
14079;DHT22;7115;50.150;8.568;2023-01-23T10:48:45;5.90;99.90
14079;DHT22;7115;50.150;8.568;2023-01-23T10:51:33;5.80;99.90
14079;DHT22;7115;50.150;8.568;2023-01-23T10:54:05;5.80;99.90
14079;DHT22;7115;50.150;8.568;2023-01-23T10:56:35;5.80;99.90
14079;DHT22;7115;50.150;8.568;2023-01-23T10:59:04;5.80;99.90
14079;DHT22;7115;50.150;8.568;2023-01-23T11:01:33;5.80;99.90
14079;DHT22;7115;50.150;8.568;2023-01-23T11:04:18;5.80;99.90
14079;DHT22;7115;50.150;8.568;2023-01-23T11:07:00;5.90;99.90
14079;DHT22;7115;50.150;8.568;2023-01-23T11:09:27;5.90;99.90
14079;DHT22;7115;50.150;8.568;2023-01-23T11:12:03;5.80;99.90
14079;DHT22;7115;50.150;8.568;2023-01-23T11:14:31;5.90;99.90
14079;DHT22;7115;50.150;8.568;2023-01-23T11:17:02;6.00;99.90
14079;DHT22;7115;50.150;8.568;2023-01-23T11:19:32;6.00;99.90
14079;DHT22;7115;50.150;8.568;2023-01-23T11:22:00;6.10;99.90
14079;DHT22;7115;50.150;8.568;2023-01-23T11:24:32;6.20;99.90
14079;DHT22;7115;50.150;8.568;2023-01-23T11:27:17;6.20;99.90
14079;DHT22;7115;50.150;8.568;2023-01-23T11:30:12;6.30;99.90
14079;DHT22;7115;50.150;8.568;2023-01-23T11:32:48;6.30;99.90
14079;DHT22;7115;50.150;8.568;2023-01-23T11:35:22;6.40;99.90
14079;DHT22;7115;50.150;8.568;2023-01-23T11:37:52;6.50;99.90
14079;DHT22;7115;50.150;8.568;2023-01-23T11:40:21;6.50;99.90
14079;DHT22;7115;50.150;8.568;2023-01-23T11:42:49;6.60;99.90
14079;DHT22;7115;50.150;8.568;2023-01-23T11:45:28;6.70;99.90
14079;DHT22;7115;50.150;8.568;2023-01-23T11:48:10;6.80;99.90
14079;DHT22;7115;50.150;8.568;2023-01-23T11:50:42;7.00;99.90
14079;DHT22;7115;50.150;8.568;2023-01-23T11:53:28;7.00;99.90
14079;DHT22;7115;50.150;8.568;2023-01-23T11:56:30;7.00;99.90
14079;DHT22;7115;50.150;8.568;2023-01-23T11:59:23;7.10;99.90
14079;DHT22;7115;50.150;8.568;2023-01-23T12:02:08;7.20;99.90
14079;DHT22;7115;50.150;8.568;2023-01-23T12:05:00;7.20;99.90
14079;DHT22;7115;50.150;8.568;2023-01-23T12:07:36;7.10;99.90
14079;DHT22;7115;50.150;8.568;2023-01-23T12:10:14;7.20;99.90
14079;DHT22;7115;50.150;8.568;2023-01-23T12:15:38;7.30;99.90
14079;DHT22;7115;50.150;8.568;2023-01-23T12:18:19;7.30;99.90
14079;DHT22;7115;50.150;8.568;2023-01-23T12:20:58;7.40;99.90
14079;DHT22;7115;50.150;8.568;2023-01-23T12:23:46;7.50;99.90
14079;DHT22;7115;50.150;8.568;2023-01-23T12:26:16;7.60;99.90
14079;DHT22;7115;50.150;8.568;2023-01-23T12:29:05;7.60;99.90
14079;DHT22;7115;50.150;8.568;2023-01-23T12:31:51;7.60;99.90
14079;DHT22;7115;50.150;8.568;2023-01-23T12:34:31;7.60;99.90
14079;DHT22;7115;50.150;8.568;2023-01-23T12:37:14;7.60;99.90
14079;DHT22;7115;50.150;8.568;2023-01-23T12:40:02;7.60;99.90
14079;DHT22;7115;50.150;8.568;2023-01-23T12:42:39;7.70;99.90
14079;DHT22;7115;50.150;8.568;2023-01-23T12:45:16;7.70;99.90
14079;DHT22;7115;50.150;8.568;2023-01-23T12:47:51;7.70;99.90
14079;DHT22;7115;50.150;8.568;2023-01-23T12:50:23;7.80;99.90
14079;DHT22;7115;50.150;8.568;2023-01-23T12:52:58;7.90;99.90
14079;DHT22;7115;50.150;8.568;2023-01-23T12:55:31;7.90;99.90
14079;DHT22;7115;50.150;8.568;2023-01-23T12:58:00;8.00;99.90
14079;DHT22;7115;50.150;8.568;2023-01-23T13:00:48;8.00;99.90
14079;DHT22;7115;50.150;8.568;2023-01-23T13:06:28;8.10;99.90
14079;DHT22;7115;50.150;8.568;2023-01-23T13:09:06;8.30;99.90
14079;DHT22;7115;50.150;8.568;2023-01-23T13:11:54;8.40;99.90
14079;DHT22;7115;50.150;8.568;2023-01-23T13:14:36;8.30;99.90
14079;DHT22;7115;50.150;8.568;2023-01-23T13:17:37;8.30;99.90
14079;DHT22;7115;50.150;8.568;2023-01-23T13:20:22;8.30;99.90
14079;DHT22;7115;50.150;8.568;2023-01-23T13:23:29;8.30;99.90
14079;DHT22;7115;50.150;8.568;2023-01-23T13:26:29;8.30;99.90
14079;DHT22;7115;50.150;8.568;2023-01-23T13:29:02;8.40;99.90
14079;DHT22;7115;50.150;8.568;2023-01-23T13:31:41;8.40;99.90
14079;DHT22;7115;50.150;8.568;2023-01-23T13:34:33;8.40;99.90
14079;DHT22;7115;50.150;8.568;2023-01-23T13:40:14;8.50;99.90
14079;DHT22;7115;50.150;8.568;2023-01-23T13:42:41;8.50;99.90
14079;DHT22;7115;50.150;8.568;2023-01-23T13:45:30;8.60;99.90
14079;DHT22;7115;50.150;8.568;2023-01-23T13:48:28;8.70;99.90
14079;DHT22;7115;50.150;8.568;2023-01-23T13:51:31;8.80;99.90
14079;DHT22;7115;50.150;8.568;2023-01-23T13:54:13;8.70;99.90
14079;DHT22;7115;50.150;8.568;2023-01-23T13:57:15;8.80;99.90
14079;DHT22;7115;50.150;8.568;2023-01-23T13:59:56;8.70;99.90
14079;DHT22;7115;50.150;8.568;2023-01-23T14:02:44;8.70;99.90
14079;DHT22;7115;50.150;8.568;2023-01-23T14:06:02;8.70;99.90
14079;DHT22;7115;50.150;8.568;2023-01-23T14:08:46;8.70;99.90
14079;DHT22;7115;50.150;8.568;2023-01-23T14:11:34;8.60;99.90
14079;DHT22;7115;50.150;8.568;2023-01-23T14:14:16;8.50;99.90
14079;DHT22;7115;50.150;8.568;2023-01-23T14:17:16;8.40;99.90
14079;DHT22;7115;50.150;8.568;2023-01-23T14:20:00;8.30;99.90
14079;DHT22;7115;50.150;8.568;2023-01-23T14:22:42;8.30;99.90
14079;DHT22;7115;50.150;8.568;2023-01-23T14:25:13;8.20;99.90
14079;DHT22;7115;50.150;8.568;2023-01-23T14:27:42;8.10;99.90
14079;DHT22;7115;50.150;8.568;2023-01-23T14:30:21;8.10;99.90
14079;DHT22;7115;50.150;8.568;2023-01-23T14:32:50;8.00;99.90
14079;DHT22;7115;50.150;8.568;2023-01-23T14:35:23;7.90;99.90
14079;DHT22;7115;50.150;8.568;2023-01-23T14:37:52;7.90;99.90
14079;DHT22;7115;50.150;8.568;2023-01-23T14:40:20;7.90;99.90
14079;DHT22;7115;50.150;8.568;2023-01-23T14:42:57;7.90;99.90
14079;DHT22;7115;50.150;8.568;2023-01-23T14:45:27;7.80;99.90
14079;DHT22;7115;50.150;8.568;2023-01-23T14:47:56;7.70;99.90
14079;DHT22;7115;50.150;8.568;2023-01-23T14:50:34;7.50;99.90
14079;DHT22;7115;50.150;8.568;2023-01-23T14:53:03;7.30;99.90
14079;DHT22;7115;50.150;8.568;2023-01-23T14:55:30;7.20;99.90
14079;DHT22;7115;50.150;8.568;2023-01-23T14:58:01;7.10;99.90
14079;DHT22;7115;50.150;8.568;2023-01-23T15:00:29;7.00;99.90
14079;DHT22;7115;50.150;8.568;2023-01-23T15:02:56;6.90;99.90
14079;DHT22;7115;50.150;8.568;2023-01-23T15:05:25;6.80;99.90
14079;DHT22;7115;50.150;8.568;2023-01-23T15:07:56;6.70;99.90
14079;DHT22;7115;50.150;8.568;2023-01-23T15:10:26;6.60;99.90
14079;DHT22;7115;50.150;8.568;2023-01-23T15:12:55;6.50;99.90
14079;DHT22;7115;50.150;8.568;2023-01-23T15:15:25;6.40;99.90
14079;DHT22;7115;50.150;8.568;2023-01-23T15:17:53;6.30;99.90
14079;DHT22;7115;50.150;8.568;2023-01-23T15:20:30;6.20;99.90
14079;DHT22;7115;50.150;8.568;2023-01-23T15:23:19;6.20;99.90
14079;DHT22;7115;50.150;8.568;2023-01-23T15:25:48;6.10;99.90
14079;DHT22;7115;50.150;8.568;2023-01-23T15:28:30;6.00;99.90
14079;DHT22;7115;50.150;8.568;2023-01-23T15:30:58;5.90;99.90
14079;DHT22;7115;50.150;8.568;2023-01-23T15:33:26;5.70;99.90
14079;DHT22;7115;50.150;8.568;2023-01-23T15:36:02;5.70;99.90
14079;DHT22;7115;50.150;8.568;2023-01-23T15:38:30;5.60;99.90
14079;DHT22;7115;50.150;8.568;2023-01-23T15:40:58;5.50;99.90
14079;DHT22;7115;50.150;8.568;2023-01-23T15:43:25;5.40;99.90
14079;DHT22;7115;50.150;8.568;2023-01-23T15:45:52;5.30;99.90
14079;DHT22;7115;50.150;8.568;2023-01-23T15:48:19;5.30;99.90
14079;DHT22;7115;50.150;8.568;2023-01-23T15:50:46;5.20;99.90
14079;DHT22;7115;50.150;8.568;2023-01-23T15:53:14;5.20;99.90
14079;DHT22;7115;50.150;8.568;2023-01-23T15:55:42;5.20;99.90
14079;DHT22;7115;50.150;8.568;2023-01-23T15:58:11;5.20;99.90
14079;DHT22;7115;50.150;8.568;2023-01-23T16:00:39;5.10;99.90
14079;DHT22;7115;50.150;8.568;2023-01-23T16:03:06;5.10;99.90
14079;DHT22;7115;50.150;8.568;2023-01-23T16:05:35;5.10;99.90
14079;DHT22;7115;50.150;8.568;2023-01-23T16:08:04;5.10;99.90
14079;DHT22;7115;50.150;8.568;2023-01-23T16:10:35;5.00;99.90
14079;DHT22;7115;50.150;8.568;2023-01-23T16:13:04;5.00;99.90
14079;DHT22;7115;50.150;8.568;2023-01-23T16:15:32;4.90;99.90
14079;DHT22;7115;50.150;8.568;2023-01-23T16:18:01;4.80;99.90
14079;DHT22;7115;50.150;8.568;2023-01-23T16:20:31;4.80;99.90
14079;DHT22;7115;50.150;8.568;2023-01-23T16:23:03;4.80;99.90
14079;DHT22;7115;50.150;8.568;2023-01-23T16:25:41;4.80;99.90
14079;DHT22;7115;50.150;8.568;2023-01-23T16:28:14;4.70;99.90
14079;DHT22;7115;50.150;8.568;2023-01-23T16:30:42;4.70;99.90
14079;DHT22;7115;50.150;8.568;2023-01-23T16:33:09;4.70;99.90
14079;DHT22;7115;50.150;8.568;2023-01-23T16:35:36;4.70;99.90
14079;DHT22;7115;50.150;8.568;2023-01-23T16:38:04;4.70;99.90
14079;DHT22;7115;50.150;8.568;2023-01-23T16:40:32;4.70;99.90